sensor_id;sensor_type;location;lat;lon;timestamp;P1;P2;P0
73546;PMS7003;61807;48.384;-4.386;2022-12-18T00:01:26;26.50;22.00;13.00
73546;PMS7003;61807;48.384;-4.386;2022-12-18T00:03:59;29.25;21.00;13.75
73546;PMS7003;61807;48.384;-4.386;2022-12-18T00:06:26;35.50;24.50;15.00
73546;PMS7003;61807;48.384;-4.386;2022-12-18T00:08:54;31.25;23.25;13.50
73546;PMS7003;61807;48.384;-4.386;2022-12-18T00:11:22;26.50;22.75;14.00
73546;PMS7003;61807;48.384;-4.386;2022-12-18T00:13:49;40.00;28.00;14.00
73546;PMS7003;61807;48.384;-4.386;2022-12-18T00:16:16;35.25;25.25;13.75
73546;PMS7003;61807;48.384;-4.386;2022-12-18T00:18:45;29.00;23.75;14.25
73546;PMS7003;61807;48.384;-4.386;2022-12-18T00:21:11;34.50;24.00;13.25
73546;PMS7003;61807;48.384;-4.386;2022-12-18T00:23:39;31.50;25.25;14.00
73546;PMS7003;61807;48.384;-4.386;2022-12-18T00:26:08;35.25;24.50;14.25
73546;PMS7003;61807;48.384;-4.386;2022-12-18T00:28:36;24.50;19.75;13.50
73546;PMS7003;61807;48.384;-4.386;2022-12-18T00:31:05;26.25;21.25;11.50
73546;PMS7003;61807;48.384;-4.386;2022-12-18T00:33:33;33.25;25.50;12.50
73546;PMS7003;61807;48.384;-4.386;2022-12-18T00:36:06;34.75;24.00;15.00
73546;PMS7003;61807;48.384;-4.386;2022-12-18T00:38:34;36.25;25.75;13.75
73546;PMS7003;61807;48.384;-4.386;2022-12-18T00:41:00;32.25;24.50;13.25
73546;PMS7003;61807;48.384;-4.386;2022-12-18T00:43:26;28.75;23.25;14.50
73546;PMS7003;61807;48.384;-4.386;2022-12-18T00:45:52;37.00;28.00;14.50
73546;PMS7003;61807;48.384;-4.386;2022-12-18T00:48:17;34.75;23.50;15.25
73546;PMS7003;61807;48.384;-4.386;2022-12-18T00:50:43;38.50;26.25;14.75
73546;PMS7003;61807;48.384;-4.386;2022-12-18T00:53:08;30.75;23.25;14.50
73546;PMS7003;61807;48.384;-4.386;2022-12-18T00:55:34;36.00;27.25;14.75
73546;PMS7003;61807;48.384;-4.386;2022-12-18T00:57:59;39.25;26.00;15.00
73546;PMS7003;61807;48.384;-4.386;2022-12-18T01:00:24;26.00;23.50;14.75
73546;PMS7003;61807;48.384;-4.386;2022-12-18T01:02:50;28.50;25.25;13.50
73546;PMS7003;61807;48.384;-4.386;2022-12-18T01:05:15;37.25;24.00;14.50
73546;PMS7003;61807;48.384;-4.386;2022-12-18T01:07:41;30.75;23.00;13.50
73546;PMS7003;61807;48.384;-4.386;2022-12-18T01:10:07;44.25;28.50;13.75
73546;PMS7003;61807;48.384;-4.386;2022-12-18T01:12:34;32.75;25.50;14.00
73546;PMS7003;61807;48.384;-4.386;2022-12-18T01:15:00;28.75;22.00;14.00
73546;PMS7003;61807;48.384;-4.386;2022-12-18T01:17:25;31.25;25.25;14.00
73546;PMS7003;61807;48.384;-4.386;2022-12-18T01:19:51;31.00;22.50;11.25
73546;PMS7003;61807;48.384;-4.386;2022-12-18T01:22:16;36.00;21.75;14.00
73546;PMS7003;61807;48.384;-4.386;2022-12-18T01:24:41;37.00;29.50;14.50
73546;PMS7003;61807;48.384;-4.386;2022-12-18T01:27:07;28.50;17.50;12.75
73546;PMS7003;61807;48.384;-4.386;2022-12-18T01:29:32;31.75;25.25;13.50
73546;PMS7003;61807;48.384;-4.386;2022-12-18T01:31:57;37.25;26.75;15.50
73546;PMS7003;61807;48.384;-4.386;2022-12-18T01:34:23;30.50;27.25;15.00
73546;PMS7003;61807;48.384;-4.386;2022-12-18T01:36:49;39.25;22.50;15.50
73546;PMS7003;61807;48.384;-4.386;2022-12-18T01:39:17;36.25;25.50;15.50
73546;PMS7003;61807;48.384;-4.386;2022-12-18T01:41:43;39.75;26.50;14.75
73546;PMS7003;61807;48.384;-4.386;2022-12-18T01:49:56;34.33;27.00;13.67
73546;PMS7003;61807;48.384;-4.386;2022-12-18T01:52:24;28.25;23.25;14.00
73546;PMS7003;61807;48.384;-4.386;2022-12-18T01:54:53;35.00;24.50;14.00
73546;PMS7003;61807;48.384;-4.386;2022-12-18T01:57:20;28.50;22.50;12.50
73546;PMS7003;61807;48.384;-4.386;2022-12-18T01:59:47;44.75;24.25;14.75
73546;PMS7003;61807;48.384;-4.386;2022-12-18T02:02:17;29.00;20.75;13.75
73546;PMS7003;61807;48.384;-4.386;2022-12-18T02:04:43;29.75;20.50;10.25
73546;PMS7003;61807;48.384;-4.386;2022-12-18T02:09:50;37.75;28.75;15.25
73546;PMS7003;61807;48.384;-4.386;2022-12-18T02:12:25;37.75;32.50;18.50
73546;PMS7003;61807;48.384;-4.386;2022-12-18T02:15:00;32.50;26.50;15.00
73546;PMS7003;61807;48.384;-4.386;2022-12-18T02:17:33;30.50;23.50;14.50
73546;PMS7003;61807;48.384;-4.386;2022-12-18T02:20:21;41.50;28.00;15.50
73546;PMS7003;61807;48.384;-4.386;2022-12-18T02:29:25;32.75;22.00;12.25
73546;PMS7003;61807;48.384;-4.386;2022-12-18T02:31:35;37.75;22.75;16.00
73546;PMS7003;61807;48.384;-4.386;2022-12-18T02:34:05;38.00;27.00;16.75
73546;PMS7003;61807;48.384;-4.386;2022-12-18T02:36:33;37.50;27.00;13.50
73546;PMS7003;61807;48.384;-4.386;2022-12-18T02:39:01;30.75;26.00;15.00
73546;PMS7003;61807;48.384;-4.386;2022-12-18T02:41:28;37.00;25.00;15.00
73546;PMS7003;61807;48.384;-4.386;2022-12-18T02:43:56;35.25;24.00;15.00
73546;PMS7003;61807;48.384;-4.386;2022-12-18T02:46:32;40.50;27.00;16.00
73546;PMS7003;61807;48.384;-4.386;2022-12-18T02:49:06;34.75;26.00;16.25
73546;PMS7003;61807;48.384;-4.386;2022-12-18T02:59:41;29.00;26.50;15.00
73546;PMS7003;61807;48.384;-4.386;2022-12-18T03:05:39;35.00;26.00;17.50
73546;PMS7003;61807;48.384;-4.386;2022-12-18T03:08:10;39.25;32.75;17.25
73546;PMS7003;61807;48.384;-4.386;2022-12-18T03:10:42;40.50;29.25;17.25
73546;PMS7003;61807;48.384;-4.386;2022-12-18T03:13:17;38.25;30.50;17.00
73546;PMS7003;61807;48.384;-4.386;2022-12-18T03:15:49;32.25;23.75;15.50
73546;PMS7003;61807;48.384;-4.386;2022-12-18T03:18:22;38.75;27.00;17.00
73546;PMS7003;61807;48.384;-4.386;2022-12-18T03:20:55;33.75;24.50;12.50
73546;PMS7003;61807;48.384;-4.386;2022-12-18T03:23:26;44.25;30.25;17.00
73546;PMS7003;61807;48.384;-4.386;2022-12-18T03:25:58;30.00;28.25;16.50
73546;PMS7003;61807;48.384;-4.386;2022-12-18T03:28:26;41.75;26.25;17.00
73546;PMS7003;61807;48.384;-4.386;2022-12-18T03:30:56;35.00;27.00;17.25
73546;PMS7003;61807;48.384;-4.386;2022-12-18T03:33:25;38.75;25.75;13.25
73546;PMS7003;61807;48.384;-4.386;2022-12-18T03:35:55;36.25;29.00;16.50
73546;PMS7003;61807;48.384;-4.386;2022-12-18T03:38:21;41.75;31.00;18.50
73546;PMS7003;61807;48.384;-4.386;2022-12-18T03:46:06;42.50;28.25;17.00
73546;PMS7003;61807;48.384;-4.386;2022-12-18T03:48:44;34.50;28.75;17.25
73546;PMS7003;61807;48.384;-4.386;2022-12-18T03:51:17;40.75;28.25;14.75
73546;PMS7003;61807;48.384;-4.386;2022-12-18T03:54:05;40.25;26.50;13.00
73546;PMS7003;61807;48.384;-4.386;2022-12-18T03:56:35;43.75;31.50;16.75
73546;PMS7003;61807;48.384;-4.386;2022-12-18T03:59:05;32.25;26.75;16.50
73546;PMS7003;61807;48.384;-4.386;2022-12-18T04:01:33;36.50;27.00;17.50
73546;PMS7003;61807;48.384;-4.386;2022-12-18T04:04:03;36.25;26.75;17.75
73546;PMS7003;61807;48.384;-4.386;2022-12-18T04:06:30;30.00;25.50;12.75
73546;PMS7003;61807;48.384;-4.386;2022-12-18T04:08:57;34.25;25.75;16.00
73546;PMS7003;61807;48.384;-4.386;2022-12-18T04:11:23;42.50;31.00;18.00
73546;PMS7003;61807;48.384;-4.386;2022-12-18T04:13:49;43.25;26.00;13.00
73546;PMS7003;61807;48.384;-4.386;2022-12-18T04:16:14;39.00;29.00;16.50
73546;PMS7003;61807;48.384;-4.386;2022-12-18T04:18:39;30.50;22.50;15.00
73546;PMS7003;61807;48.384;-4.386;2022-12-18T04:21:05;29.25;18.25;12.75
73546;PMS7003;61807;48.384;-4.386;2022-12-18T04:23:30;42.00;29.00;17.75
73546;PMS7003;61807;48.384;-4.386;2022-12-18T04:25:56;32.00;26.00;15.00
73546;PMS7003;61807;48.384;-4.386;2022-12-18T04:28:21;29.75;23.50;14.00
73546;PMS7003;61807;48.384;-4.386;2022-12-18T04:30:46;33.00;24.50;17.00
73546;PMS7003;61807;48.384;-4.386;2022-12-18T04:33:12;34.00;23.75;14.50
73546;PMS7003;61807;48.384;-4.386;2022-12-18T04:35:39;31.50;24.50;14.75
73546;PMS7003;61807;48.384;-4.386;2022-12-18T04:38:06;30.00;18.50;11.75
73546;PMS7003;61807;48.384;-4.386;2022-12-18T04:40:34;30.75;25.00;17.25
73546;PMS7003;61807;48.384;-4.386;2022-12-18T04:43:00;38.00;25.50;15.25
73546;PMS7003;61807;48.384;-4.386;2022-12-18T04:45:26;34.00;27.00;17.00
73546;PMS7003;61807;48.384;-4.386;2022-12-18T04:47:51;24.75;20.75;15.25
73546;PMS7003;61807;48.384;-4.386;2022-12-18T04:50:16;24.75;24.75;14.25
73546;PMS7003;61807;48.384;-4.386;2022-12-18T04:52:42;32.75;25.75;14.00
73546;PMS7003;61807;48.384;-4.386;2022-12-18T04:55:07;29.25;24.50;15.25
73546;PMS7003;61807;48.384;-4.386;2022-12-18T04:57:33;26.25;21.25;14.75
73546;PMS7003;61807;48.384;-4.386;2022-12-18T04:59:58;31.50;25.00;14.50
73546;PMS7003;61807;48.384;-4.386;2022-12-18T05:02:24;29.25;25.75;15.50
73546;PMS7003;61807;48.384;-4.386;2022-12-18T05:04:49;25.50;20.50;14.25
73546;PMS7003;61807;48.384;-4.386;2022-12-18T05:07:14;34.25;20.75;14.00
73546;PMS7003;61807;48.384;-4.386;2022-12-18T05:09:40;24.25;22.75;15.00
73546;PMS7003;61807;48.384;-4.386;2022-12-18T05:12:05;25.00;19.25;9.25
73546;PMS7003;61807;48.384;-4.386;2022-12-18T05:14:31;35.25;24.50;14.00
73546;PMS7003;61807;48.384;-4.386;2022-12-18T05:16:56;28.25;24.25;14.00
73546;PMS7003;61807;48.384;-4.386;2022-12-18T05:19:21;32.25;24.50;14.75
73546;PMS7003;61807;48.384;-4.386;2022-12-18T05:21:47;28.25;22.50;15.00
73546;PMS7003;61807;48.384;-4.386;2022-12-18T05:24:12;25.25;23.75;15.00
73546;PMS7003;61807;48.384;-4.386;2022-12-18T05:26:38;28.50;22.75;14.25
73546;PMS7003;61807;48.384;-4.386;2022-12-18T05:29:03;24.25;22.50;15.75
73546;PMS7003;61807;48.384;-4.386;2022-12-18T05:31:28;30.50;24.00;13.75
73546;PMS7003;61807;48.384;-4.386;2022-12-18T05:33:54;27.00;19.25;11.00
73546;PMS7003;61807;48.384;-4.386;2022-12-18T05:36:19;25.75;21.00;13.50
73546;PMS7003;61807;48.384;-4.386;2022-12-18T05:38:45;29.50;22.75;15.75
73546;PMS7003;61807;48.384;-4.386;2022-12-18T05:41:10;27.00;21.00;13.00
73546;PMS7003;61807;48.384;-4.386;2022-12-18T05:43:36;24.50;21.75;13.75
73546;PMS7003;61807;48.384;-4.386;2022-12-18T05:46:06;30.00;23.00;13.25
73546;PMS7003;61807;48.384;-4.386;2022-12-18T05:48:33;21.50;20.00;14.00
73546;PMS7003;61807;48.384;-4.386;2022-12-18T05:51:09;28.25;23.25;14.00
73546;PMS7003;61807;48.384;-4.386;2022-12-18T05:53:39;27.75;23.00;12.25
73546;PMS7003;61807;48.384;-4.386;2022-12-18T05:56:06;26.50;21.75;14.00
73546;PMS7003;61807;48.384;-4.386;2022-12-18T05:58:35;21.50;19.75;13.00
73546;PMS7003;61807;48.384;-4.386;2022-12-18T06:01:08;24.25;19.75;12.25
73546;PMS7003;61807;48.384;-4.386;2022-12-18T06:03:36;16.75;15.50;11.00
73546;PMS7003;61807;48.384;-4.386;2022-12-18T06:06:01;27.50;23.50;16.00
73546;PMS7003;61807;48.384;-4.386;2022-12-18T06:08:27;22.50;19.25;13.50
73546;PMS7003;61807;48.384;-4.386;2022-12-18T06:10:53;15.50;13.75;8.50
73546;PMS7003;61807;48.384;-4.386;2022-12-18T06:13:18;22.25;16.50;12.50
73546;PMS7003;61807;48.384;-4.386;2022-12-18T06:15:44;24.50;22.00;14.25
73546;PMS7003;61807;48.384;-4.386;2022-12-18T06:18:10;26.75;23.50;13.50
73546;PMS7003;61807;48.384;-4.386;2022-12-18T06:20:35;21.75;19.75;12.50
73546;PMS7003;61807;48.384;-4.386;2022-12-18T06:23:02;24.75;20.50;12.50
73546;PMS7003;61807;48.384;-4.386;2022-12-18T06:25:27;18.25;18.25;9.75
73546;PMS7003;61807;48.384;-4.386;2022-12-18T06:27:53;27.50;20.25;10.00
73546;PMS7003;61807;48.384;-4.386;2022-12-18T06:30:18;19.25;17.00;11.00
73546;PMS7003;61807;48.384;-4.386;2022-12-18T06:32:44;23.75;18.25;13.00
73546;PMS7003;61807;48.384;-4.386;2022-12-18T06:35:09;16.00;14.75;10.75
73546;PMS7003;61807;48.384;-4.386;2022-12-18T06:37:35;18.50;15.00;10.00
73546;PMS7003;61807;48.384;-4.386;2022-12-18T06:40:00;22.50;19.75;10.50
73546;PMS7003;61807;48.384;-4.386;2022-12-18T06:42:26;27.25;19.75;11.50
73546;PMS7003;61807;48.384;-4.386;2022-12-18T06:44:51;23.50;17.75;11.75
73546;PMS7003;61807;48.384;-4.386;2022-12-18T06:47:17;21.75;17.50;10.25
73546;PMS7003;61807;48.384;-4.386;2022-12-18T06:49:43;21.75;15.25;9.75
73546;PMS7003;61807;48.384;-4.386;2022-12-18T06:52:08;25.00;19.00;10.50
73546;PMS7003;61807;48.384;-4.386;2022-12-18T06:54:34;13.00;13.00;9.00
73546;PMS7003;61807;48.384;-4.386;2022-12-18T06:56:59;17.75;15.00;9.00
73546;PMS7003;61807;48.384;-4.386;2022-12-18T06:59:25;17.25;12.50;9.00
73546;PMS7003;61807;48.384;-4.386;2022-12-18T07:01:50;17.00;15.50;9.50
73546;PMS7003;61807;48.384;-4.386;2022-12-18T07:04:16;22.25;18.00;8.00
73546;PMS7003;61807;48.384;-4.386;2022-12-18T07:06:42;17.75;16.50;11.00
73546;PMS7003;61807;48.384;-4.386;2022-12-18T07:09:07;18.25;15.00;10.00
73546;PMS7003;61807;48.384;-4.386;2022-12-18T07:11:33;15.50;14.00;10.00
73546;PMS7003;61807;48.384;-4.386;2022-12-18T07:13:58;17.25;14.50;9.00
73546;PMS7003;61807;48.384;-4.386;2022-12-18T07:16:24;16.25;14.25;10.25
73546;PMS7003;61807;48.384;-4.386;2022-12-18T07:18:50;15.25;11.50;8.75
73546;PMS7003;61807;48.384;-4.386;2022-12-18T07:21:17;10.75;10.75;8.00
73546;PMS7003;61807;48.384;-4.386;2022-12-18T07:23:43;12.75;11.50;8.25
73546;PMS7003;61807;48.384;-4.386;2022-12-18T07:26:11;12.25;8.50;6.25
73546;PMS7003;61807;48.384;-4.386;2022-12-18T07:28:38;12.25;9.75;6.00
73546;PMS7003;61807;48.384;-4.386;2022-12-18T07:31:08;13.50;10.25;8.00
73546;PMS7003;61807;48.384;-4.386;2022-12-18T07:33:36;10.00;9.00;5.75
73546;PMS7003;61807;48.384;-4.386;2022-12-18T07:36:03;10.50;9.00;5.00
73546;PMS7003;61807;48.384;-4.386;2022-12-18T07:38:31;11.00;9.25;7.75
73546;PMS7003;61807;48.384;-4.386;2022-12-18T07:41:01;10.75;6.75;5.00
73546;PMS7003;61807;48.384;-4.386;2022-12-18T07:43:27;13.50;8.75;5.50
73546;PMS7003;61807;48.384;-4.386;2022-12-18T07:45:53;9.25;7.25;5.00
73546;PMS7003;61807;48.384;-4.386;2022-12-18T07:48:18;12.00;6.25;5.00
73546;PMS7003;61807;48.384;-4.386;2022-12-18T07:50:44;10.75;7.25;5.00
73546;PMS7003;61807;48.384;-4.386;2022-12-18T07:53:09;6.25;6.25;4.00
73546;PMS7003;61807;48.384;-4.386;2022-12-18T07:55:35;10.00;8.75;6.00
73546;PMS7003;61807;48.384;-4.386;2022-12-18T07:58:01;9.75;6.50;4.00
73546;PMS7003;61807;48.384;-4.386;2022-12-18T08:00:27;5.00;5.00;3.75
73546;PMS7003;61807;48.384;-4.386;2022-12-18T08:02:53;7.00;6.00;4.00
73546;PMS7003;61807;48.384;-4.386;2022-12-18T08:05:18;7.25;5.25;3.50
73546;PMS7003;61807;48.384;-4.386;2022-12-18T08:07:45;6.00;6.00;4.75
73546;PMS7003;61807;48.384;-4.386;2022-12-18T08:10:11;5.00;3.75;3.00
73546;PMS7003;61807;48.384;-4.386;2022-12-18T08:12:36;4.50;4.50;2.00
73546;PMS7003;61807;48.384;-4.386;2022-12-18T08:15:02;6.25;5.00;3.25
73546;PMS7003;61807;48.384;-4.386;2022-12-18T08:17:27;9.25;7.50;6.25
73546;PMS7003;61807;48.384;-4.386;2022-12-18T08:19:52;5.75;2.25;2.00
73546;PMS7003;61807;48.384;-4.386;2022-12-18T08:22:18;3.50;3.50;2.00
73546;PMS7003;61807;48.384;-4.386;2022-12-18T08:24:43;4.25;4.00;3.25
73546;PMS7003;61807;48.384;-4.386;2022-12-18T08:27:10;8.25;5.00;3.00
73546;PMS7003;61807;48.384;-4.386;2022-12-18T08:29:35;4.00;4.00;3.00
73546;PMS7003;61807;48.384;-4.386;2022-12-18T08:32:00;4.25;3.25;2.50
73546;PMS7003;61807;48.384;-4.386;2022-12-18T08:34:26;3.00;3.00;2.00
73546;PMS7003;61807;48.384;-4.386;2022-12-18T08:36:51;11.50;5.50;3.50
73546;PMS7003;61807;48.384;-4.386;2022-12-18T08:39:17;5.75;4.50;2.75
73546;PMS7003;61807;48.384;-4.386;2022-12-18T08:41:42;3.00;3.00;2.75
73546;PMS7003;61807;48.384;-4.386;2022-12-18T08:44:27;7.00;4.00;3.00
73546;PMS7003;61807;48.384;-4.386;2022-12-18T08:47:02;15.50;10.75;5.75
73546;PMS7003;61807;48.384;-4.386;2022-12-18T08:49:28;7.75;5.75;3.00
73546;PMS7003;61807;48.384;-4.386;2022-12-18T08:51:54;4.00;4.00;3.00
73546;PMS7003;61807;48.384;-4.386;2022-12-18T08:54:20;7.00;5.25;3.25
73546;PMS7003;61807;48.384;-4.386;2022-12-18T08:56:45;7.25;3.50;2.75
73546;PMS7003;61807;48.384;-4.386;2022-12-18T08:59:11;6.75;3.00;3.00
73546;PMS7003;61807;48.384;-4.386;2022-12-18T09:01:36;6.00;4.75;3.00
73546;PMS7003;61807;48.384;-4.386;2022-12-18T09:04:01;8.50;5.00;3.25
73546;PMS7003;61807;48.384;-4.386;2022-12-18T09:06:27;6.50;3.00;2.00
73546;PMS7003;61807;48.384;-4.386;2022-12-18T09:08:52;6.25;3.75;3.00
73546;PMS7003;61807;48.384;-4.386;2022-12-18T09:11:22;6.50;3.25;3.00
73546;PMS7003;61807;48.384;-4.386;2022-12-18T09:13:49;5.50;2.00;2.00
73546;PMS7003;61807;48.384;-4.386;2022-12-18T09:16:15;4.00;3.00;2.00
73546;PMS7003;61807;48.384;-4.386;2022-12-18T09:18:41;7.25;3.00;2.25
73546;PMS7003;61807;48.384;-4.386;2022-12-18T09:21:07;6.25;3.75;3.00
73546;PMS7003;61807;48.384;-4.386;2022-12-18T09:23:37;3.50;2.25;1.00
73546;PMS7003;61807;48.384;-4.386;2022-12-18T09:26:02;3.00;3.00;2.00
73546;PMS7003;61807;48.384;-4.386;2022-12-18T09:28:28;4.50;2.75;2.00
73546;PMS7003;61807;48.384;-4.386;2022-12-18T09:30:53;3.00;3.00;2.00
73546;PMS7003;61807;48.384;-4.386;2022-12-18T09:33:19;3.75;3.00;2.00
73546;PMS7003;61807;48.384;-4.386;2022-12-18T09:35:44;3.25;2.25;1.75
73546;PMS7003;61807;48.384;-4.386;2022-12-18T09:38:14;6.50;3.00;2.00
73546;PMS7003;61807;48.384;-4.386;2022-12-18T09:40:42;7.50;4.00;3.00
73546;PMS7003;61807;48.384;-4.386;2022-12-18T09:43:12;5.00;3.50;3.00
73546;PMS7003;61807;48.384;-4.386;2022-12-18T09:45:44;16.50;13.75;10.50
73546;PMS7003;61807;48.384;-4.386;2022-12-18T09:48:34;5.00;3.00;2.50
73546;PMS7003;61807;48.384;-4.386;2022-12-18T09:51:10;4.00;2.75;2.00
73546;PMS7003;61807;48.384;-4.386;2022-12-18T09:53:45;5.50;2.00;2.00
73546;PMS7003;61807;48.384;-4.386;2022-12-18T09:56:16;7.25;4.00;2.75
73546;PMS7003;61807;48.384;-4.386;2022-12-18T09:58:49;3.75;3.75;3.00
73546;PMS7003;61807;48.384;-4.386;2022-12-18T10:01:21;13.25;10.75;8.50
73546;PMS7003;61807;48.384;-4.386;2022-12-18T10:03:48;6.00;4.00;3.00
73546;PMS7003;61807;48.384;-4.386;2022-12-18T10:06:14;6.50;4.00;3.00
73546;PMS7003;61807;48.384;-4.386;2022-12-18T10:16:17;4.50;2.00;1.25
73546;PMS7003;61807;48.384;-4.386;2022-12-18T10:21:57;10.50;7.25;5.25
73546;PMS7003;61807;48.384;-4.386;2022-12-18T10:27:32;5.50;2.75;2.50
73546;PMS7003;61807;48.384;-4.386;2022-12-18T10:29:57;2.25;2.00;2.00
73546;PMS7003;61807;48.384;-4.386;2022-12-18T10:32:25;5.75;3.00;2.50
73546;PMS7003;61807;48.384;-4.386;2022-12-18T10:34:54;3.00;3.00;3.00
73546;PMS7003;61807;48.384;-4.386;2022-12-18T10:37:22;6.00;4.00;2.50
73546;PMS7003;61807;48.384;-4.386;2022-12-18T10:40:04;4.00;2.25;2.00
73546;PMS7003;61807;48.384;-4.386;2022-12-18T10:42:33;4.00;2.00;2.00
73546;PMS7003;61807;48.384;-4.386;2022-12-18T10:45:03;12.75;10.25;7.75
73546;PMS7003;61807;48.384;-4.386;2022-12-18T10:47:47;5.75;4.50;2.00
73546;PMS7003;61807;48.384;-4.386;2022-12-18T10:50:23;9.00;7.50;5.50
73546;PMS7003;61807;48.384;-4.386;2022-12-18T10:52:58;7.50;4.50;3.25
73546;PMS7003;61807;48.384;-4.386;2022-12-18T10:55:32;6.00;2.00;2.00
73546;PMS7003;61807;48.384;-4.386;2022-12-18T10:58:18;6.25;2.00;2.00
73546;PMS7003;61807;48.384;-4.386;2022-12-18T11:03:43;5.00;2.50;2.00
73546;PMS7003;61807;48.384;-4.386;2022-12-18T11:08:42;5.00;3.50;2.00
73546;PMS7003;61807;48.384;-4.386;2022-12-18T11:11:19;2.75;2.75;2.00
73546;PMS7003;61807;48.384;-4.386;2022-12-18T11:13:51;2.00;2.00;2.00
73546;PMS7003;61807;48.384;-4.386;2022-12-18T11:16:20;5.00;3.50;2.50
73546;PMS7003;61807;48.384;-4.386;2022-12-18T11:18:45;2.00;2.00;2.00
73546;PMS7003;61807;48.384;-4.386;2022-12-18T11:21:11;5.50;3.50;2.50
73546;PMS7003;61807;48.384;-4.386;2022-12-18T11:23:44;4.50;3.00;2.50
73546;PMS7003;61807;48.384;-4.386;2022-12-18T11:26:15;1.00;1.00;0.00
73546;PMS7003;61807;48.384;-4.386;2022-12-18T11:28:43;4.75;2.50;2.00
73546;PMS7003;61807;48.384;-4.386;2022-12-18T11:36:24;2.00;1.00;1.00
73546;PMS7003;61807;48.384;-4.386;2022-12-18T11:38:54;4.25;3.75;3.00
73546;PMS7003;61807;48.384;-4.386;2022-12-18T11:41:33;6.75;3.50;2.00
73546;PMS7003;61807;48.384;-4.386;2022-12-18T11:44:25;5.50;2.75;2.00
73546;PMS7003;61807;48.384;-4.386;2022-12-18T11:47:00;2.75;2.75;2.00
73546;PMS7003;61807;48.384;-4.386;2022-12-18T11:49:34;4.00;2.25;2.00
73546;PMS7003;61807;48.384;-4.386;2022-12-18T11:54:40;5.00;3.00;2.00
73546;PMS7003;61807;48.384;-4.386;2022-12-18T11:59:54;4.00;3.00;2.00
73546;PMS7003;61807;48.384;-4.386;2022-12-18T12:02:34;1.75;1.75;1.75
73546;PMS7003;61807;48.384;-4.386;2022-12-18T12:05:20;4.00;4.00;2.75
73546;PMS7003;61807;48.384;-4.386;2022-12-18T12:07:53;5.50;4.00;3.00
73546;PMS7003;61807;48.384;-4.386;2022-12-18T12:11:46;7.00;4.50;3.00
73546;PMS7003;61807;48.384;-4.386;2022-12-18T12:16:52;5.50;3.25;2.75
73546;PMS7003;61807;48.384;-4.386;2022-12-18T12:36:26;6.75;4.25;2.75
73546;PMS7003;61807;48.384;-4.386;2022-12-18T12:39:05;4.25;3.00;2.50
73546;PMS7003;61807;48.384;-4.386;2022-12-18T12:41:33;6.00;3.75;2.50
73546;PMS7003;61807;48.384;-4.386;2022-12-18T12:44:20;4.25;2.00;0.00
73546;PMS7003;61807;48.384;-4.386;2022-12-18T12:46:51;2.75;2.25;2.00
73546;PMS7003;61807;48.384;-4.386;2022-12-18T12:49:20;6.00;4.00;3.00
73546;PMS7003;61807;48.384;-4.386;2022-12-18T12:51:50;3.25;3.25;2.00
73546;PMS7003;61807;48.384;-4.386;2022-12-18T12:54:25;8.00;5.75;4.00
73546;PMS7003;61807;48.384;-4.386;2022-12-18T13:00:04;7.00;3.75;3.00
73546;PMS7003;61807;48.384;-4.386;2022-12-18T13:05:23;6.25;4.00;3.00
73546;PMS7003;61807;48.384;-4.386;2022-12-18T13:08:05;6.00;4.75;3.00
73546;PMS7003;61807;48.384;-4.386;2022-12-18T13:10:39;10.00;3.00;2.25
73546;PMS7003;61807;48.384;-4.386;2022-12-18T13:15:43;4.00;3.00;2.00
73546;PMS7003;61807;48.384;-4.386;2022-12-18T13:30:59;5.00;3.50;2.50
73546;PMS7003;61807;48.384;-4.386;2022-12-18T13:35:55;7.50;4.00;3.00
73546;PMS7003;61807;48.384;-4.386;2022-12-18T13:38:35;6.00;3.00;2.00
73546;PMS7003;61807;48.384;-4.386;2022-12-18T13:41:04;3.75;2.25;1.50
73546;PMS7003;61807;48.384;-4.386;2022-12-18T13:43:48;4.25;3.50;1.75
73546;PMS7003;61807;48.384;-4.386;2022-12-18T13:46:24;3.00;2.00;1.25
73546;PMS7003;61807;48.384;-4.386;2022-12-18T13:48:55;5.75;2.75;2.00
73546;PMS7003;61807;48.384;-4.386;2022-12-18T13:51:24;6.25;1.75;1.00
73546;PMS7003;61807;48.384;-4.386;2022-12-18T13:53:52;6.50;2.75;2.00
73546;PMS7003;61807;48.384;-4.386;2022-12-18T13:56:22;3.50;2.00;1.00
73546;PMS7003;61807;48.384;-4.386;2022-12-18T13:59:03;3.25;1.75;1.75
73546;PMS7003;61807;48.384;-4.386;2022-12-18T14:01:33;3.50;2.00;1.00
73546;PMS7003;61807;48.384;-4.386;2022-12-18T14:06:45;6.75;2.75;1.75
73546;PMS7003;61807;48.384;-4.386;2022-12-18T14:09:20;3.50;2.00;1.50
73546;PMS7003;61807;48.384;-4.386;2022-12-18T14:11:50;4.75;3.50;1.75
73546;PMS7003;61807;48.384;-4.386;2022-12-18T14:14:17;5.50;1.00;1.00
73546;PMS7003;61807;48.384;-4.386;2022-12-18T14:16:44;6.25;4.75;2.75
73546;PMS7003;61807;48.384;-4.386;2022-12-18T14:19:15;7.00;2.75;2.00
73546;PMS7003;61807;48.384;-4.386;2022-12-18T14:21:47;5.50;3.00;2.00
73546;PMS7003;61807;48.384;-4.386;2022-12-18T14:24:16;4.25;2.50;1.75
73546;PMS7003;61807;48.384;-4.386;2022-12-18T14:26:46;6.00;2.00;1.00
73546;PMS7003;61807;48.384;-4.386;2022-12-18T14:29:26;4.00;1.00;1.00
73546;PMS7003;61807;48.384;-4.386;2022-12-18T14:32:06;19.75;17.00;13.00
73546;PMS7003;61807;48.384;-4.386;2022-12-18T14:34:38;4.25;3.00;2.00
73546;PMS7003;61807;48.384;-4.386;2022-12-18T14:37:04;7.00;4.00;3.00
73546;PMS7003;61807;48.384;-4.386;2022-12-18T14:39:31;6.00;3.00;2.25
73546;PMS7003;61807;48.384;-4.386;2022-12-18T14:41:57;5.50;2.00;1.00
73546;PMS7003;61807;48.384;-4.386;2022-12-18T14:44:22;5.25;2.00;1.00
73546;PMS7003;61807;48.384;-4.386;2022-12-18T14:46:48;4.50;1.75;1.00
73546;PMS7003;61807;48.384;-4.386;2022-12-18T14:51:53;4.50;3.00;2.00
73546;PMS7003;61807;48.384;-4.386;2022-12-18T14:54:20;6.25;3.75;2.00
73546;PMS7003;61807;48.384;-4.386;2022-12-18T14:56:48;6.75;3.00;1.50
73546;PMS7003;61807;48.384;-4.386;2022-12-18T14:59:33;7.00;2.00;1.25
73546;PMS7003;61807;48.384;-4.386;2022-12-18T15:04:35;6.75;1.00;1.00
73546;PMS7003;61807;48.384;-4.386;2022-12-18T15:09:36;6.50;2.50;1.50
73546;PMS7003;61807;48.384;-4.386;2022-12-18T15:12:02;2.00;2.00;1.00
73546;PMS7003;61807;48.384;-4.386;2022-12-18T15:14:31;5.00;2.75;2.00
73546;PMS7003;61807;48.384;-4.386;2022-12-18T15:17:05;5.25;1.75;1.00
73546;PMS7003;61807;48.384;-4.386;2022-12-18T15:19:40;4.50;2.50;1.00
73546;PMS7003;61807;48.384;-4.386;2022-12-18T15:24:53;3.25;3.25;1.00
73546;PMS7003;61807;48.384;-4.386;2022-12-18T15:27:20;4.00;2.00;1.00
73546;PMS7003;61807;48.384;-4.386;2022-12-18T15:32:37;3.50;2.00;1.00
73546;PMS7003;61807;48.384;-4.386;2022-12-18T15:37:34;3.50;2.00;1.00
73546;PMS7003;61807;48.384;-4.386;2022-12-18T15:40:00;2.75;2.00;1.00
73546;PMS7003;61807;48.384;-4.386;2022-12-18T15:42:27;3.00;3.00;2.00
73546;PMS7003;61807;48.384;-4.386;2022-12-18T15:45:12;2.75;1.00;1.00
73546;PMS7003;61807;48.384;-4.386;2022-12-18T15:47:38;7.75;2.75;2.00
73546;PMS7003;61807;48.384;-4.386;2022-12-18T15:50:04;5.00;2.25;1.00
73546;PMS7003;61807;48.384;-4.386;2022-12-18T15:52:31;5.50;2.75;2.00
73546;PMS7003;61807;48.384;-4.386;2022-12-18T15:55:05;6.50;2.00;2.00
73546;PMS7003;61807;48.384;-4.386;2022-12-18T15:58:00;3.00;3.00;1.00
73546;PMS7003;61807;48.384;-4.386;2022-12-18T16:00:26;6.25;3.00;2.00
73546;PMS7003;61807;48.384;-4.386;2022-12-18T16:02:51;7.50;3.50;2.00
73546;PMS7003;61807;48.384;-4.386;2022-12-18T16:05:18;3.00;3.00;2.00